sensor_id;sensor_type;location;lat;lon;timestamp;temperature;humidity
8643;DHT22;4359;49.358;11.256;2023-07-30T00:02:20;16.40;99.90
8643;DHT22;4359;49.358;11.256;2023-07-30T00:04:46;16.30;99.90
8643;DHT22;4359;49.358;11.256;2023-07-30T00:07:12;16.30;99.90
8643;DHT22;4359;49.358;11.256;2023-07-30T00:09:38;16.30;99.90
8643;DHT22;4359;49.358;11.256;2023-07-30T00:12:05;16.20;99.90
8643;DHT22;4359;49.358;11.256;2023-07-30T00:14:31;16.20;99.90
8643;DHT22;4359;49.358;11.256;2023-07-30T00:16:57;16.20;99.90
8643;DHT22;4359;49.358;11.256;2023-07-30T00:19:23;16.20;99.90
8643;DHT22;4359;49.358;11.256;2023-07-30T00:21:48;16.20;99.90
8643;DHT22;4359;49.358;11.256;2023-07-30T00:24:14;16.20;99.90
8643;DHT22;4359;49.358;11.256;2023-07-30T00:26:39;16.30;99.90
8643;DHT22;4359;49.358;11.256;2023-07-30T00:29:05;16.40;99.90
8643;DHT22;4359;49.358;11.256;2023-07-30T00:31:31;16.40;99.90
8643;DHT22;4359;49.358;11.256;2023-07-30T00:33:56;16.40;99.90
8643;DHT22;4359;49.358;11.256;2023-07-30T00:36:22;16.40;99.90
8643;DHT22;4359;49.358;11.256;2023-07-30T00:38:48;16.40;99.90
8643;DHT22;4359;49.358;11.256;2023-07-30T00:41:13;16.30;99.90
8643;DHT22;4359;49.358;11.256;2023-07-30T00:43:39;16.30;99.90
8643;DHT22;4359;49.358;11.256;2023-07-30T00:46:05;16.30;99.90
8643;DHT22;4359;49.358;11.256;2023-07-30T00:48:30;16.30;99.90
8643;DHT22;4359;49.358;11.256;2023-07-30T00:50:57;16.30;99.90
8643;DHT22;4359;49.358;11.256;2023-07-30T00:53:24;16.30;99.90
8643;DHT22;4359;49.358;11.256;2023-07-30T00:55:51;16.30;99.90
8643;DHT22;4359;49.358;11.256;2023-07-30T00:58:17;16.30;99.90
8643;DHT22;4359;49.358;11.256;2023-07-30T01:00:44;16.40;99.90
8643;DHT22;4359;49.358;11.256;2023-07-30T01:03:10;16.40;99.90
8643;DHT22;4359;49.358;11.256;2023-07-30T01:05:36;16.40;99.90
8643;DHT22;4359;49.358;11.256;2023-07-30T01:08:02;16.50;99.90
8643;DHT22;4359;49.358;11.256;2023-07-30T01:10:30;16.60;99.90
8643;DHT22;4359;49.358;11.256;2023-07-30T01:12:59;16.60;99.90
8643;DHT22;4359;49.358;11.256;2023-07-30T01:15:27;16.60;99.90
8643;DHT22;4359;49.358;11.256;2023-07-30T01:17:53;16.60;99.90
8643;DHT22;4359;49.358;11.256;2023-07-30T01:20:19;16.50;99.90
8643;DHT22;4359;49.358;11.256;2023-07-30T01:22:44;16.50;99.90
8643;DHT22;4359;49.358;11.256;2023-07-30T01:25:10;16.50;99.90
8643;DHT22;4359;49.358;11.256;2023-07-30T01:27:41;16.50;99.90
8643;DHT22;4359;49.358;11.256;2023-07-30T01:30:22;16.50;99.90
8643;DHT22;4359;49.358;11.256;2023-07-30T01:32:51;16.50;99.90
8643;DHT22;4359;49.358;11.256;2023-07-30T01:35:21;16.60;99.90
8643;DHT22;4359;49.358;11.256;2023-07-30T01:37:49;16.60;99.90
8643;DHT22;4359;49.358;11.256;2023-07-30T01:40:14;16.60;99.90
8643;DHT22;4359;49.358;11.256;2023-07-30T01:42:40;16.60;99.90
8643;DHT22;4359;49.358;11.256;2023-07-30T01:45:06;16.50;99.90
8643;DHT22;4359;49.358;11.256;2023-07-30T01:47:32;16.50;99.90
8643;DHT22;4359;49.358;11.256;2023-07-30T01:49:58;16.60;99.90
8643;DHT22;4359;49.358;11.256;2023-07-30T01:52:23;16.60;99.90
8643;DHT22;4359;49.358;11.256;2023-07-30T01:54:49;16.60;99.90
8643;DHT22;4359;49.358;11.256;2023-07-30T01:57:15;16.60;99.90
8643;DHT22;4359;49.358;11.256;2023-07-30T01:59:40;16.50;99.90
8643;DHT22;4359;49.358;11.256;2023-07-30T02:02:06;16.70;99.90
8643;DHT22;4359;49.358;11.256;2023-07-30T02:04:33;16.70;99.90
8643;DHT22;4359;49.358;11.256;2023-07-30T02:06:59;16.70;99.90
8643;DHT22;4359;49.358;11.256;2023-07-30T02:09:24;16.70;99.90
8643;DHT22;4359;49.358;11.256;2023-07-30T02:11:51;16.60;99.90
8643;DHT22;4359;49.358;11.256;2023-07-30T02:14:18;16.70;99.90
8643;DHT22;4359;49.358;11.256;2023-07-30T02:16:43;16.70;99.90
8643;DHT22;4359;49.358;11.256;2023-07-30T02:19:09;16.70;99.90
8643;DHT22;4359;49.358;11.256;2023-07-30T02:21:35;16.80;99.90
8643;DHT22;4359;49.358;11.256;2023-07-30T02:24:02;16.80;99.90
8643;DHT22;4359;49.358;11.256;2023-07-30T02:26:28;16.80;99.90
8643;DHT22;4359;49.358;11.256;2023-07-30T02:28:54;16.80;99.90
8643;DHT22;4359;49.358;11.256;2023-07-30T02:31:19;16.80;99.90
8643;DHT22;4359;49.358;11.256;2023-07-30T02:33:45;16.70;99.90
8643;DHT22;4359;49.358;11.256;2023-07-30T02:36:11;16.70;99.90
8643;DHT22;4359;49.358;11.256;2023-07-30T02:38:36;16.80;99.90
8643;DHT22;4359;49.358;11.256;2023-07-30T02:41:02;16.70;99.90
8643;DHT22;4359;49.358;11.256;2023-07-30T02:43:28;16.70;99.90
8643;DHT22;4359;49.358;11.256;2023-07-30T02:45:53;16.70;99.90
8643;DHT22;4359;49.358;11.256;2023-07-30T02:48:19;16.70;99.90
8643;DHT22;4359;49.358;11.256;2023-07-30T02:50:45;16.80;99.90
8643;DHT22;4359;49.358;11.256;2023-07-30T02:53:10;16.80;99.90
8643;DHT22;4359;49.358;11.256;2023-07-30T02:55:36;16.80;99.90
8643;DHT22;4359;49.358;11.256;2023-07-30T02:58:02;16.80;99.90
8643;DHT22;4359;49.358;11.256;2023-07-30T03:00:27;16.70;99.90
8643;DHT22;4359;49.358;11.256;2023-07-30T03:02:53;16.70;99.90
8643;DHT22;4359;49.358;11.256;2023-07-30T03:05:18;16.60;99.90
8643;DHT22;4359;49.358;11.256;2023-07-30T03:07:44;16.60;99.90
8643;DHT22;4359;49.358;11.256;2023-07-30T03:10:10;16.50;99.90
8643;DHT22;4359;49.358;11.256;2023-07-30T03:12:35;16.50;99.90
8643;DHT22;4359;49.358;11.256;2023-07-30T03:15:01;16.50;99.90
8643;DHT22;4359;49.358;11.256;2023-07-30T03:17:26;16.50;99.90
8643;DHT22;4359;49.358;11.256;2023-07-30T03:19:52;16.40;99.90
8643;DHT22;4359;49.358;11.256;2023-07-30T03:22:18;16.40;99.90
8643;DHT22;4359;49.358;11.256;2023-07-30T03:24:46;16.40;99.90
8643;DHT22;4359;49.358;11.256;2023-07-30T03:27:12;16.40;99.90
8643;DHT22;4359;49.358;11.256;2023-07-30T03:29:37;16.50;99.90
8643;DHT22;4359;49.358;11.256;2023-07-30T03:32:03;16.40;99.90
8643;DHT22;4359;49.358;11.256;2023-07-30T03:34:28;16.30;99.90
8643;DHT22;4359;49.358;11.256;2023-07-30T03:36:54;16.20;99.90
8643;DHT22;4359;49.358;11.256;2023-07-30T03:39:20;16.20;99.90
8643;DHT22;4359;49.358;11.256;2023-07-30T03:41:45;16.20;99.90
8643;DHT22;4359;49.358;11.256;2023-07-30T03:44:11;16.20;99.90
8643;DHT22;4359;49.358;11.256;2023-07-30T03:46:37;16.20;99.90
8643;DHT22;4359;49.358;11.256;2023-07-30T03:49:02;16.20;99.90
8643;DHT22;4359;49.358;11.256;2023-07-30T03:51:28;16.20;99.90
8643;DHT22;4359;49.358;11.256;2023-07-30T03:53:54;16.40;99.90
8643;DHT22;4359;49.358;11.256;2023-07-30T03:56:19;16.40;99.90
8643;DHT22;4359;49.358;11.256;2023-07-30T03:58:45;16.50;99.90
8643;DHT22;4359;49.358;11.256;2023-07-30T04:01:11;16.50;99.90
8643;DHT22;4359;49.358;11.256;2023-07-30T04:03:36;16.60;99.90
8643;DHT22;4359;49.358;11.256;2023-07-30T04:06:02;16.60;99.90
8643;DHT22;4359;49.358;11.256;2023-07-30T04:08:28;16.70;99.90
8643;DHT22;4359;49.358;11.256;2023-07-30T04:10:53;16.70;99.90
8643;DHT22;4359;49.358;11.256;2023-07-30T04:13:19;16.70;99.90
8643;DHT22;4359;49.358;11.256;2023-07-30T04:15:47;16.70;99.90
8643;DHT22;4359;49.358;11.256;2023-07-30T04:18:13;16.70;99.90
8643;DHT22;4359;49.358;11.256;2023-07-30T04:20:39;16.70;99.90
8643;DHT22;4359;49.358;11.256;2023-07-30T04:23:04;16.60;99.90
8643;DHT22;4359;49.358;11.256;2023-07-30T04:25:30;16.60;99.90
8643;DHT22;4359;49.358;11.256;2023-07-30T04:27:55;16.50;99.90
8643;DHT22;4359;49.358;11.256;2023-07-30T04:30:21;16.50;99.90
8643;DHT22;4359;49.358;11.256;2023-07-30T04:32:47;16.50;99.90
8643;DHT22;4359;49.358;11.256;2023-07-30T04:35:12;16.50;99.90
8643;DHT22;4359;49.358;11.256;2023-07-30T04:37:38;16.50;99.90
8643;DHT22;4359;49.358;11.256;2023-07-30T04:40:04;16.50;99.90
8643;DHT22;4359;49.358;11.256;2023-07-30T04:42:30;16.50;99.90
8643;DHT22;4359;49.358;11.256;2023-07-30T04:44:56;16.50;99.90
8643;DHT22;4359;49.358;11.256;2023-07-30T04:47:21;16.50;99.90
8643;DHT22;4359;49.358;11.256;2023-07-30T04:49:47;16.50;99.90
8643;DHT22;4359;49.358;11.256;2023-07-30T04:52:12;16.70;99.90
8643;DHT22;4359;49.358;11.256;2023-07-30T04:54:38;16.80;99.90
8643;DHT22;4359;49.358;11.256;2023-07-30T04:57:04;16.80;99.90
8643;DHT22;4359;49.358;11.256;2023-07-30T04:59:31;16.80;99.90
8643;DHT22;4359;49.358;11.256;2023-07-30T05:01:59;16.80;99.90
8643;DHT22;4359;49.358;11.256;2023-07-30T05:04:25;16.80;99.90
8643;DHT22;4359;49.358;11.256;2023-07-30T05:06:50;17.00;99.90
8643;DHT22;4359;49.358;11.256;2023-07-30T05:09:16;17.00;99.90
8643;DHT22;4359;49.358;11.256;2023-07-30T05:11:42;17.00;99.90
8643;DHT22;4359;49.358;11.256;2023-07-30T05:14:07;17.10;99.90
8643;DHT22;4359;49.358;11.256;2023-07-30T05:16:33;17.30;99.90
8643;DHT22;4359;49.358;11.256;2023-07-30T05:18:58;17.50;99.90
8643;DHT22;4359;49.358;11.256;2023-07-30T05:21:24;17.70;99.90
8643;DHT22;4359;49.358;11.256;2023-07-30T05:23:51;17.90;99.90
8643;DHT22;4359;49.358;11.256;2023-07-30T05:26:16;18.20;99.90
8643;DHT22;4359;49.358;11.256;2023-07-30T05:28:42;18.40;99.90
8643;DHT22;4359;49.358;11.256;2023-07-30T05:31:07;18.60;99.90
8643;DHT22;4359;49.358;11.256;2023-07-30T05:33:33;18.60;99.90
8643;DHT22;4359;49.358;11.256;2023-07-30T05:35:59;18.50;99.90
8643;DHT22;4359;49.358;11.256;2023-07-30T05:38:24;18.40;99.90
8643;DHT22;4359;49.358;11.256;2023-07-30T05:40:50;18.20;99.90
8643;DHT22;4359;49.358;11.256;2023-07-30T05:43:15;18.20;99.90
8643;DHT22;4359;49.358;11.256;2023-07-30T05:45:41;18.10;99.90
8643;DHT22;4359;49.358;11.256;2023-07-30T05:48:07;18.10;99.90
8643;DHT22;4359;49.358;11.256;2023-07-30T05:50:32;18.00;99.90
8643;DHT22;4359;49.358;11.256;2023-07-30T05:52:58;18.00;99.90
8643;DHT22;4359;49.358;11.256;2023-07-30T05:55:24;17.90;99.90
8643;DHT22;4359;49.358;11.256;2023-07-30T05:57:49;17.90;99.90
8643;DHT22;4359;49.358;11.256;2023-07-30T06:00:15;17.90;99.90
8643;DHT22;4359;49.358;11.256;2023-07-30T06:02:41;17.80;99.90
8643;DHT22;4359;49.358;11.256;2023-07-30T06:05:07;17.70;99.90
8643;DHT22;4359;49.358;11.256;2023-07-30T06:07:33;17.80;99.90
8643;DHT22;4359;49.358;11.256;2023-07-30T06:09:59;18.00;99.90
8643;DHT22;4359;49.358;11.256;2023-07-30T06:12:24;18.20;99.90
8643;DHT22;4359;49.358;11.256;2023-07-30T06:14:50;18.40;99.90
8643;DHT22;4359;49.358;11.256;2023-07-30T06:17:16;18.70;99.90
8643;DHT22;4359;49.358;11.256;2023-07-30T06:19:41;18.80;99.90
8643;DHT22;4359;49.358;11.256;2023-07-30T06:22:07;18.90;99.90
8643;DHT22;4359;49.358;11.256;2023-07-30T06:24:32;18.90;99.90
8643;DHT22;4359;49.358;11.256;2023-07-30T06:26:58;18.80;99.90
8643;DHT22;4359;49.358;11.256;2023-07-30T06:29:24;18.90;99.90
8643;DHT22;4359;49.358;11.256;2023-07-30T06:31:49;19.20;99.90
8643;DHT22;4359;49.358;11.256;2023-07-30T06:34:15;19.70;99.90
8643;DHT22;4359;49.358;11.256;2023-07-30T06:36:41;20.20;99.90
8643;DHT22;4359;49.358;11.256;2023-07-30T06:39:06;20.30;99.90
8643;DHT22;4359;49.358;11.256;2023-07-30T06:41:32;20.20;99.90
8643;DHT22;4359;49.358;11.256;2023-07-30T06:43:58;19.90;99.90
8643;DHT22;4359;49.358;11.256;2023-07-30T06:46:23;19.70;99.90
8643;DHT22;4359;49.358;11.256;2023-07-30T06:48:49;19.50;99.90
8643;DHT22;4359;49.358;11.256;2023-07-30T06:51:18;19.70;99.90
8643;DHT22;4359;49.358;11.256;2023-07-30T06:53:44;20.00;99.90
8643;DHT22;4359;49.358;11.256;2023-07-30T06:56:09;20.50;99.90
8643;DHT22;4359;49.358;11.256;2023-07-30T06:58:35;20.70;99.90
8643;DHT22;4359;49.358;11.256;2023-07-30T07:01:00;20.70;99.90
8643;DHT22;4359;49.358;11.256;2023-07-30T07:03:26;20.20;99.90
8643;DHT22;4359;49.358;11.256;2023-07-30T07:05:55;19.80;99.90
8643;DHT22;4359;49.358;11.256;2023-07-30T07:08:21;19.90;99.90
8643;DHT22;4359;49.358;11.256;2023-07-30T07:10:48;20.00;99.90
8643;DHT22;4359;49.358;11.256;2023-07-30T07:13:13;20.20;99.90
8643;DHT22;4359;49.358;11.256;2023-07-30T07:15:42;20.20;99.90
8643;DHT22;4359;49.358;11.256;2023-07-30T07:18:08;20.20;99.90
8643;DHT22;4359;49.358;11.256;2023-07-30T07:20:34;20.40;99.90
8643;DHT22;4359;49.358;11.256;2023-07-30T07:23:00;20.50;99.90
8643;DHT22;4359;49.358;11.256;2023-07-30T07:25:25;20.70;99.90
8643;DHT22;4359;49.358;11.256;2023-07-30T07:27:51;20.70;99.90
8643;DHT22;4359;49.358;11.256;2023-07-30T07:30:17;20.70;99.90
8643;DHT22;4359;49.358;11.256;2023-07-30T07:32:42;20.60;99.90
8643;DHT22;4359;49.358;11.256;2023-07-30T07:35:08;20.50;99.90
8643;DHT22;4359;49.358;11.256;2023-07-30T07:37:34;20.30;99.90
8643;DHT22;4359;49.358;11.256;2023-07-30T07:40:00;20.20;99.90
8643;DHT22;4359;49.358;11.256;2023-07-30T07:42:26;20.30;99.90
8643;DHT22;4359;49.358;11.256;2023-07-30T07:44:51;20.40;99.90
8643;DHT22;4359;49.358;11.256;2023-07-30T07:47:17;20.60;99.90
8643;DHT22;4359;49.358;11.256;2023-07-30T07:49:43;20.40;99.90
8643;DHT22;4359;49.358;11.256;2023-07-30T07:52:08;20.50;99.90
8643;DHT22;4359;49.358;11.256;2023-07-30T07:54:34;20.40;99.90
8643;DHT22;4359;49.358;11.256;2023-07-30T07:57:00;20.60;99.90
8643;DHT22;4359;49.358;11.256;2023-07-30T07:59:25;20.90;99.90
8643;DHT22;4359;49.358;11.256;2023-07-30T08:01:53;21.00;99.90
8643;DHT22;4359;49.358;11.256;2023-07-30T08:04:19;21.20;99.90
8643;DHT22;4359;49.358;11.256;2023-07-30T08:06:47;21.20;99.90
8643;DHT22;4359;49.358;11.256;2023-07-30T08:09:12;21.00;99.90
8643;DHT22;4359;49.358;11.256;2023-07-30T08:11:38;20.90;99.90
8643;DHT22;4359;49.358;11.256;2023-07-30T08:14:04;20.60;99.90
8643;DHT22;4359;49.358;11.256;2023-07-30T08:16:29;20.50;99.90
8643;DHT22;4359;49.358;11.256;2023-07-30T08:18:55;20.50;99.90
8643;DHT22;4359;49.358;11.256;2023-07-30T08:21:21;20.50;99.90
8643;DHT22;4359;49.358;11.256;2023-07-30T08:23:46;20.50;99.90
8643;DHT22;4359;49.358;11.256;2023-07-30T08:26:12;20.50;99.90
8643;DHT22;4359;49.358;11.256;2023-07-30T08:28:38;20.60;99.90
8643;DHT22;4359;49.358;11.256;2023-07-30T08:31:04;20.40;99.90
8643;DHT22;4359;49.358;11.256;2023-07-30T08:33:30;20.60;99.90
8643;DHT22;4359;49.358;11.256;2023-07-30T08:35:56;20.80;99.90
8643;DHT22;4359;49.358;11.256;2023-07-30T08:38:23;21.10;99.90
8643;DHT22;4359;49.358;11.256;2023-07-30T08:40:48;21.60;99.90
8643;DHT22;4359;49.358;11.256;2023-07-30T08:43:15;21.50;99.90
8643;DHT22;4359;49.358;11.256;2023-07-30T08:45:41;21.90;99.90
8643;DHT22;4359;49.358;11.256;2023-07-30T08:48:07;22.30;99.90
8643;DHT22;4359;49.358;11.256;2023-07-30T08:50:34;22.40;99.90
8643;DHT22;4359;49.358;11.256;2023-07-30T08:53:02;22.40;99.90
8643;DHT22;4359;49.358;11.256;2023-07-30T08:55:28;22.60;99.90
8643;DHT22;4359;49.358;11.256;2023-07-30T08:57:56;22.40;99.90
8643;DHT22;4359;49.358;11.256;2023-07-30T09:00:25;21.90;99.90
8643;DHT22;4359;49.358;11.256;2023-07-30T09:02:56;21.70;99.90
8643;DHT22;4359;49.358;11.256;2023-07-30T09:05:23;22.00;99.90
8643;DHT22;4359;49.358;11.256;2023-07-30T09:07:49;22.20;99.90
8643;DHT22;4359;49.358;11.256;2023-07-30T09:10:15;23.00;99.90
8643;DHT22;4359;49.358;11.256;2023-07-30T09:12:41;23.50;99.90
8643;DHT22;4359;49.358;11.256;2023-07-30T09:15:07;23.50;99.90
8643;DHT22;4359;49.358;11.256;2023-07-30T09:17:34;23.10;99.90
8643;DHT22;4359;49.358;11.256;2023-07-30T09:20:01;22.90;99.90
8643;DHT22;4359;49.358;11.256;2023-07-30T09:22:29;22.50;99.90
8643;DHT22;4359;49.358;11.256;2023-07-30T09:24:56;22.40;99.90
8643;DHT22;4359;49.358;11.256;2023-07-30T09:27:24;22.50;99.90
8643;DHT22;4359;49.358;11.256;2023-07-30T09:29:59;22.70;99.90
8643;DHT22;4359;49.358;11.256;2023-07-30T09:32:29;23.30;99.90
8643;DHT22;4359;49.358;11.256;2023-07-30T09:34:56;23.80;99.90
8643;DHT22;4359;49.358;11.256;2023-07-30T09:37:29;23.90;99.90
8643;DHT22;4359;49.358;11.256;2023-07-30T09:39:57;23.60;99.90
8643;DHT22;4359;49.358;11.256;2023-07-30T09:42:27;23.50;99.90
8643;DHT22;4359;49.358;11.256;2023-07-30T09:44:53;23.30;99.90
8643;DHT22;4359;49.358;11.256;2023-07-30T09:47:19;23.00;99.90
8643;DHT22;4359;49.358;11.256;2023-07-30T09:49:44;23.00;99.90
8643;DHT22;4359;49.358;11.256;2023-07-30T09:52:10;23.50;99.90
8643;DHT22;4359;49.358;11.256;2023-07-30T09:54:38;24.00;99.90
8643;DHT22;4359;49.358;11.256;2023-07-30T09:57:05;24.70;99.90
8643;DHT22;4359;49.358;11.256;2023-07-30T09:59:30;25.00;99.90
8643;DHT22;4359;49.358;11.256;2023-07-30T10:01:57;25.40;99.90
8643;DHT22;4359;49.358;11.256;2023-07-30T10:04:23;24.90;99.90
8643;DHT22;4359;49.358;11.256;2023-07-30T10:07:01;24.60;99.90
8643;DHT22;4359;49.358;11.256;2023-07-30T10:09:30;23.70;99.90
8643;DHT22;4359;49.358;11.256;2023-07-30T10:12:00;23.00;99.90
8643;DHT22;4359;49.358;11.256;2023-07-30T10:14:27;22.60;99.90
8643;DHT22;4359;49.358;11.256;2023-07-30T10:16:55;22.50;99.90
8643;DHT22;4359;49.358;11.256;2023-07-30T10:19:26;22.60;99.90
8643;DHT22;4359;49.358;11.256;2023-07-30T10:25:02;22.50;99.90
8643;DHT22;4359;49.358;11.256;2023-07-30T10:27:39;22.30;99.90
8643;DHT22;4359;49.358;11.256;2023-07-30T10:30:14;22.20;99.90
8643;DHT22;4359;49.358;11.256;2023-07-30T10:32:41;21.90;99.90
8643;DHT22;4359;49.358;11.256;2023-07-30T10:35:42;22.00;99.90
8643;DHT22;4359;49.358;11.256;2023-07-30T10:38:19;22.20;99.90
8643;DHT22;4359;49.358;11.256;2023-07-30T10:43:39;22.80;99.90
8643;DHT22;4359;49.358;11.256;2023-07-30T10:46:05;23.00;99.90
8643;DHT22;4359;49.358;11.256;2023-07-30T10:48:35;22.90;99.90
8643;DHT22;4359;49.358;11.256;2023-07-30T10:51:02;22.50;99.90
8643;DHT22;4359;49.358;11.256;2023-07-30T10:53:29;21.90;99.90
8643;DHT22;4359;49.358;11.256;2023-07-30T10:55:57;21.60;99.90
8643;DHT22;4359;49.358;11.256;2023-07-30T10:58:25;21.20;99.90
8643;DHT22;4359;49.358;11.256;2023-07-30T11:00:52;20.70;99.90
8643;DHT22;4359;49.358;11.256;2023-07-30T11:03:18;20.30;99.90
8643;DHT22;4359;49.358;11.256;2023-07-30T11:05:47;20.30;99.90
8643;DHT22;4359;49.358;11.256;2023-07-30T11:08:13;20.30;99.90
8643;DHT22;4359;49.358;11.256;2023-07-30T11:10:46;20.60;99.90
8643;DHT22;4359;49.358;11.256;2023-07-30T11:13:13;20.80;99.90
8643;DHT22;4359;49.358;11.256;2023-07-30T11:15:45;21.00;99.90
8643;DHT22;4359;49.358;11.256;2023-07-30T11:18:12;21.10;99.90
8643;DHT22;4359;49.358;11.256;2023-07-30T11:20:38;21.10;99.90
8643;DHT22;4359;49.358;11.256;2023-07-30T11:23:20;21.10;99.90
8643;DHT22;4359;49.358;11.256;2023-07-30T11:25:50;21.30;99.90
8643;DHT22;4359;49.358;11.256;2023-07-30T11:28:36;21.40;99.90
8643;DHT22;4359;49.358;11.256;2023-07-30T11:31:16;21.40;99.90
8643;DHT22;4359;49.358;11.256;2023-07-30T11:33:45;21.30;99.90
8643;DHT22;4359;49.358;11.256;2023-07-30T11:36:16;21.50;99.90
8643;DHT22;4359;49.358;11.256;2023-07-30T11:38:45;21.70;99.90
8643;DHT22;4359;49.358;11.256;2023-07-30T11:41:11;21.80;99.90
8643;DHT22;4359;49.358;11.256;2023-07-30T11:43:39;21.60;99.90
8643;DHT22;4359;49.358;11.256;2023-07-30T11:48:41;21.90;99.90
8643;DHT22;4359;49.358;11.256;2023-07-30T11:51:17;22.20;99.90
8643;DHT22;4359;49.358;11.256;2023-07-30T11:53:43;22.30;99.90
8643;DHT22;4359;49.358;11.256;2023-07-30T11:56:33;22.50;99.90
8643;DHT22;4359;49.358;11.256;2023-07-30T11:59:01;23.00;99.90
8643;DHT22;4359;49.358;11.256;2023-07-30T12:01:30;23.60;99.90
8643;DHT22;4359;49.358;11.256;2023-07-30T12:04:00;23.80;99.90
8643;DHT22;4359;49.358;11.256;2023-07-30T12:14:21;23.00;99.90
8643;DHT22;4359;49.358;11.256;2023-07-30T12:16:47;22.80;99.90
8643;DHT22;4359;49.358;11.256;2023-07-30T12:19:13;22.50;99.90
8643;DHT22;4359;49.358;11.256;2023-07-30T12:21:39;22.30;99.90
8643;DHT22;4359;49.358;11.256;2023-07-30T12:24:05;22.30;99.90
8643;DHT22;4359;49.358;11.256;2023-07-30T12:26:31;22.30;99.90
8643;DHT22;4359;49.358;11.256;2023-07-30T12:28:57;22.40;99.90
8643;DHT22;4359;49.358;11.256;2023-07-30T12:31:23;22.40;99.90
8643;DHT22;4359;49.358;11.256;2023-07-30T12:33:48;22.60;99.90
8643;DHT22;4359;49.358;11.256;2023-07-30T12:36:14;23.20;99.90
8643;DHT22;4359;49.358;11.256;2023-07-30T12:38:40;24.30;99.90
8643;DHT22;4359;49.358;11.256;2023-07-30T12:41:05;24.40;99.90
8643;DHT22;4359;49.358;11.256;2023-07-30T12:43:31;24.20;99.90
8643;DHT22;4359;49.358;11.256;2023-07-30T12:45:57;24.20;99.90
8643;DHT22;4359;49.358;11.256;2023-07-30T12:48:24;24.00;99.90
8643;DHT22;4359;49.358;11.256;2023-07-30T12:50:49;23.70;99.90
8643;DHT22;4359;49.358;11.256;2023-07-30T12:53:15;23.10;99.90
8643;DHT22;4359;49.358;11.256;2023-07-30T12:55:41;23.00;99.90
8643;DHT22;4359;49.358;11.256;2023-07-30T12:58:07;23.20;99.90
8643;DHT22;4359;49.358;11.256;2023-07-30T13:00:33;23.60;99.90
8643;DHT22;4359;49.358;11.256;2023-07-30T13:02:59;23.70;99.90
8643;DHT22;4359;49.358;11.256;2023-07-30T13:05:25;24.00;99.90
8643;DHT22;4359;49.358;11.256;2023-07-30T13:07:51;23.90;99.90
8643;DHT22;4359;49.358;11.256;2023-07-30T13:10:17;24.00;99.90
8643;DHT22;4359;49.358;11.256;2023-07-30T13:12:42;24.50;99.90
8643;DHT22;4359;49.358;11.256;2023-07-30T13:15:08;24.50;99.90
8643;DHT22;4359;49.358;11.256;2023-07-30T13:17:34;24.50;99.90
8643;DHT22;4359;49.358;11.256;2023-07-30T13:20:00;24.70;99.90
8643;DHT22;4359;49.358;11.256;2023-07-30T13:22:26;24.60;99.90
8643;DHT22;4359;49.358;11.256;2023-07-30T13:24:51;24.80;99.90
8643;DHT22;4359;49.358;11.256;2023-07-30T13:27:18;24.80;99.90
8643;DHT22;4359;49.358;11.256;2023-07-30T13:29:44;25.10;99.90
8643;DHT22;4359;49.358;11.256;2023-07-30T13:32:09;25.60;99.90
8643;DHT22;4359;49.358;11.256;2023-07-30T13:34:35;25.60;99.90
8643;DHT22;4359;49.358;11.256;2023-07-30T13:37:01;25.50;99.90
8643;DHT22;4359;49.358;11.256;2023-07-30T13:39:27;24.60;99.90
8643;DHT22;4359;49.358;11.256;2023-07-30T13:41:53;24.20;99.90
8643;DHT22;4359;49.358;11.256;2023-07-30T13:44:20;24.90;99.90
8643;DHT22;4359;49.358;11.256;2023-07-30T13:46:46;25.60;99.90
8643;DHT22;4359;49.358;11.256;2023-07-30T13:49:11;25.50;99.90
8643;DHT22;4359;49.358;11.256;2023-07-30T13:51:37;25.70;99.90
8643;DHT22;4359;49.358;11.256;2023-07-30T13:54:03;25.80;99.90
8643;DHT22;4359;49.358;11.256;2023-07-30T13:56:29;26.10;99.90
8643;DHT22;4359;49.358;11.256;2023-07-30T13:58:55;25.60;99.90
8643;DHT22;4359;49.358;11.256;2023-07-30T14:01:21;25.20;99.90
8643;DHT22;4359;49.358;11.256;2023-07-30T14:03:46;24.70;99.90
8643;DHT22;4359;49.358;11.256;2023-07-30T14:06:12;24.50;99.90
8643;DHT22;4359;49.358;11.256;2023-07-30T14:08:38;24.20;99.90
8643;DHT22;4359;49.358;11.256;2023-07-30T14:11:03;23.70;99.90
8643;DHT22;4359;49.358;11.256;2023-07-30T14:13:29;23.20;99.90
8643;DHT22;4359;49.358;11.256;2023-07-30T14:15:55;22.90;99.90
8643;DHT22;4359;49.358;11.256;2023-07-30T14:18:21;22.60;99.90
8643;DHT22;4359;49.358;11.256;2023-07-30T14:20:47;22.30;99.90
8643;DHT22;4359;49.358;11.256;2023-07-30T14:23:12;22.20;99.90
8643;DHT22;4359;49.358;11.256;2023-07-30T14:25:38;22.30;99.90
8643;DHT22;4359;49.358;11.256;2023-07-30T14:28:04;22.20;99.90
8643;DHT22;4359;49.358;11.256;2023-07-30T14:30:30;21.90;99.90
8643;DHT22;4359;49.358;11.256;2023-07-30T14:32:56;21.90;99.90
8643;DHT22;4359;49.358;11.256;2023-07-30T14:35:22;21.90;99.90
8643;DHT22;4359;49.358;11.256;2023-07-30T14:37:47;22.10;99.90
8643;DHT22;4359;49.358;11.256;2023-07-30T14:40:14;22.70;99.90
8643;DHT22;4359;49.358;11.256;2023-07-30T14:42:40;23.90;99.90
8643;DHT22;4359;49.358;11.256;2023-07-30T14:45:06;24.40;99.90
8643;DHT22;4359;49.358;11.256;2023-07-30T14:47:32;25.20;99.90
8643;DHT22;4359;49.358;11.256;2023-07-30T14:49:58;25.30;99.90
8643;DHT22;4359;49.358;11.256;2023-07-30T14:52:24;24.50;99.90
8643;DHT22;4359;49.358;11.256;2023-07-30T14:54:50;23.80;99.90
8643;DHT22;4359;49.358;11.256;2023-07-30T14:57:16;24.20;99.90
8643;DHT22;4359;49.358;11.256;2023-07-30T14:59:42;24.20;99.90
8643;DHT22;4359;49.358;11.256;2023-07-30T15:02:07;24.90;99.90
8643;DHT22;4359;49.358;11.256;2023-07-30T15:04:33;25.40;99.90
8643;DHT22;4359;49.358;11.256;2023-07-30T15:06:59;25.50;99.90
8643;DHT22;4359;49.358;11.256;2023-07-30T15:09:24;26.30;99.90
8643;DHT22;4359;49.358;11.256;2023-07-30T15:11:50;26.50;99.90
8643;DHT22;4359;49.358;11.256;2023-07-30T15:14:16;27.10;99.90
8643;DHT22;4359;49.358;11.256;2023-07-30T15:16:41;26.90;99.90
8643;DHT22;4359;49.358;11.256;2023-07-30T15:19:07;26.70;99.90
8643;DHT22;4359;49.358;11.256;2023-07-30T15:21:33;27.30;99.90
8643;DHT22;4359;49.358;11.256;2023-07-30T15:23:58;27.80;99.90
8643;DHT22;4359;49.358;11.256;2023-07-30T15:26:24;27.50;99.90
8643;DHT22;4359;49.358;11.256;2023-07-30T15:28:50;26.60;99.90
8643;DHT22;4359;49.358;11.256;2023-07-30T15:31:16;26.30;99.90
8643;DHT22;4359;49.358;11.256;2023-07-30T15:33:41;26.10;99.90
8643;DHT22;4359;49.358;11.256;2023-07-30T15:36:07;24.80;99.90
8643;DHT22;4359;49.358;11.256;2023-07-30T15:38:33;24.80;99.90
8643;DHT22;4359;49.358;11.256;2023-07-30T15:40:58;24.50;99.90
8643;DHT22;4359;49.358;11.256;2023-07-30T15:43:24;24.10;99.90
8643;DHT22;4359;49.358;11.256;2023-07-30T15:45:52;23.80;99.90
8643;DHT22;4359;49.358;11.256;2023-07-30T15:48:18;23.70;99.90
8643;DHT22;4359;49.358;11.256;2023-07-30T15:50:44;23.60;99.90
8643;DHT22;4359;49.358;11.256;2023-07-30T15:53:10;23.10;99.90
8643;DHT22;4359;49.358;11.256;2023-07-30T15:55:35;22.90;99.90
8643;DHT22;4359;49.358;11.256;2023-07-30T15:58:01;22.90;99.90